sensor_id;sensor_type;location;lat;lon;timestamp;pressure;altitude;pressure_sealevel;temperature;humidity
7333;BME280;3707;43.618;25.342;2023-02-04T00:01:57;99900.97;;;3.39;100.00
7333;BME280;3707;43.618;25.342;2023-02-04T00:04:23;99885.47;;;3.36;100.00
7333;BME280;3707;43.618;25.342;2023-02-04T00:06:50;99884.22;;;3.47;100.00
7333;BME280;3707;43.618;25.342;2023-02-04T00:09:17;99859.47;;;3.48;100.00
7333;BME280;3707;43.618;25.342;2023-02-04T00:11:45;99870.19;;;3.60;100.00
7333;BME280;3707;43.618;25.342;2023-02-04T00:14:12;99859.00;;;3.58;100.00
7333;BME280;3707;43.618;25.342;2023-02-04T00:16:38;99858.97;;;3.57;100.00
7333;BME280;3707;43.618;25.342;2023-02-04T00:19:05;99842.88;;;3.38;100.00
7333;BME280;3707;43.618;25.342;2023-02-04T00:21:32;99851.84;;;3.49;100.00
7333;BME280;3707;43.618;25.342;2023-02-04T00:23:59;99846.16;;;3.57;100.00
7333;BME280;3707;43.618;25.342;2023-02-04T00:26:25;99835.75;;;3.54;100.00
7333;BME280;3707;43.618;25.342;2023-02-04T00:28:54;99822.44;;;3.62;100.00
7333;BME280;3707;43.618;25.342;2023-02-04T00:31:20;99802.22;;;3.47;100.00
7333;BME280;3707;43.618;25.342;2023-02-04T00:33:47;99812.69;;;3.54;100.00
7333;BME280;3707;43.618;25.342;2023-02-04T00:36:14;99806.22;;;3.41;100.00
7333;BME280;3707;43.618;25.342;2023-02-04T00:38:41;99753.06;;;3.13;100.00
7333;BME280;3707;43.618;25.342;2023-02-04T00:41:07;99762.53;;;3.16;100.00
7333;BME280;3707;43.618;25.342;2023-02-04T00:43:34;99786.53;;;3.40;100.00
7333;BME280;3707;43.618;25.342;2023-02-04T00:46:02;99776.69;;;3.50;100.00
7333;BME280;3707;43.618;25.342;2023-02-04T00:48:29;99746.13;;;3.33;100.00
7333;BME280;3707;43.618;25.342;2023-02-04T00:50:56;99767.22;;;3.48;100.00
7333;BME280;3707;43.618;25.342;2023-02-04T00:53:23;99755.38;;;3.52;100.00
7333;BME280;3707;43.618;25.342;2023-02-04T00:55:49;99740.41;;;3.40;100.00
7333;BME280;3707;43.618;25.342;2023-02-04T00:58:16;99746.72;;;3.48;100.00
7333;BME280;3707;43.618;25.342;2023-02-04T01:00:43;99743.34;;;3.49;100.00
7333;BME280;3707;43.618;25.342;2023-02-04T01:03:11;99733.81;;;3.69;100.00
7333;BME280;3707;43.618;25.342;2023-02-04T01:05:38;99730.44;;;3.70;100.00
7333;BME280;3707;43.618;25.342;2023-02-04T01:08:04;99701.88;;;3.61;100.00
7333;BME280;3707;43.618;25.342;2023-02-04T01:10:31;99698.63;;;3.65;100.00
7333;BME280;3707;43.618;25.342;2023-02-04T01:12:58;99690.94;;;3.65;100.00
7333;BME280;3707;43.618;25.342;2023-02-04T01:15:25;99690.00;;;3.63;100.00
7333;BME280;3707;43.618;25.342;2023-02-04T01:17:52;99697.22;;;3.73;100.00
7333;BME280;3707;43.618;25.342;2023-02-04T01:20:20;99697.41;;;3.79;100.00
7333;BME280;3707;43.618;25.342;2023-02-04T01:22:47;99687.25;;;3.82;100.00
7333;BME280;3707;43.618;25.342;2023-02-04T01:25:13;99681.53;;;3.89;100.00
7333;BME280;3707;43.618;25.342;2023-02-04T01:27:40;99676.91;;;3.79;100.00
7333;BME280;3707;43.618;25.342;2023-02-04T01:30:08;99664.09;;;3.79;100.00
7333;BME280;3707;43.618;25.342;2023-02-04T01:32:35;99662.47;;;3.81;100.00
7333;BME280;3707;43.618;25.342;2023-02-04T01:35:02;99645.94;;;3.73;100.00
7333;BME280;3707;43.618;25.342;2023-02-04T01:37:30;99648.19;;;3.89;100.00
7333;BME280;3707;43.618;25.342;2023-02-04T01:39:57;99629.84;;;3.77;100.00
7333;BME280;3707;43.618;25.342;2023-02-04T01:42:24;99629.38;;;3.63;100.00
7333;BME280;3707;43.618;25.342;2023-02-04T01:44:51;99627.38;;;3.80;100.00
7333;BME280;3707;43.618;25.342;2023-02-04T01:47:19;99644.81;;;3.90;100.00
7333;BME280;3707;43.618;25.342;2023-02-04T01:49:50;99634.06;;;4.00;100.00
7333;BME280;3707;43.618;25.342;2023-02-04T01:52:18;99628.66;;;3.92;100.00
7333;BME280;3707;43.618;25.342;2023-02-04T01:54:46;99616.00;;;3.97;100.00
7333;BME280;3707;43.618;25.342;2023-02-04T01:57:15;99530.56;;;3.47;100.00
7333;BME280;3707;43.618;25.342;2023-02-04T01:59:42;99624.94;;;4.08;100.00
7333;BME280;3707;43.618;25.342;2023-02-04T02:02:38;99614.03;;;4.15;100.00
7333;BME280;3707;43.618;25.342;2023-02-04T02:05:07;99620.59;;;4.07;100.00
7333;BME280;3707;43.618;25.342;2023-02-04T02:07:35;99593.25;;;4.06;100.00
7333;BME280;3707;43.618;25.342;2023-02-04T02:10:04;99604.47;;;4.10;100.00
7333;BME280;3707;43.618;25.342;2023-02-04T02:12:32;99613.41;;;4.21;100.00
7333;BME280;3707;43.618;25.342;2023-02-04T02:14:59;99616.88;;;4.23;100.00
7333;BME280;3707;43.618;25.342;2023-02-04T02:17:26;99616.72;;;4.18;100.00
7333;BME280;3707;43.618;25.342;2023-02-04T02:19:53;99616.06;;;4.24;100.00
7333;BME280;3707;43.618;25.342;2023-02-04T02:22:24;99577.97;;;4.11;100.00
7333;BME280;3707;43.618;25.342;2023-02-04T02:24:55;99604.13;;;4.26;100.00
7333;BME280;3707;43.618;25.342;2023-02-04T02:27:22;99567.97;;;4.18;100.00
7333;BME280;3707;43.618;25.342;2023-02-04T02:29:49;99577.41;;;4.19;100.00
7333;BME280;3707;43.618;25.342;2023-02-04T02:32:16;99594.84;;;4.29;100.00
7333;BME280;3707;43.618;25.342;2023-02-04T02:34:43;99588.88;;;4.30;100.00
7333;BME280;3707;43.618;25.342;2023-02-04T02:37:11;99581.28;;;4.33;100.00
7333;BME280;3707;43.618;25.342;2023-02-04T02:39:39;99569.25;;;4.31;100.00
7333;BME280;3707;43.618;25.342;2023-02-04T02:42:10;99566.03;;;4.38;100.00
7333;BME280;3707;43.618;25.342;2023-02-04T02:44:39;99568.53;;;4.36;100.00
7333;BME280;3707;43.618;25.342;2023-02-04T02:47:11;99559.31;;;4.41;100.00
7333;BME280;3707;43.618;25.342;2023-02-04T02:49:39;99555.72;;;4.36;100.00
7333;BME280;3707;43.618;25.342;2023-02-04T02:52:09;99512.25;;;4.14;100.00
7333;BME280;3707;43.618;25.342;2023-02-04T02:54:36;99511.19;;;4.08;100.00
7333;BME280;3707;43.618;25.342;2023-02-04T02:57:11;99535.78;;;4.28;100.00
7333;BME280;3707;43.618;25.342;2023-02-04T02:59:38;99529.88;;;4.30;100.00
7333;BME280;3707;43.618;25.342;2023-02-04T03:02:05;99523.97;;;4.33;100.00
7333;BME280;3707;43.618;25.342;2023-02-04T03:04:35;99538.88;;;4.44;100.00
7333;BME280;3707;43.618;25.342;2023-02-04T03:07:03;99543.22;;;4.47;100.00
7333;BME280;3707;43.618;25.342;2023-02-04T03:09:32;99541.91;;;4.60;100.00
7333;BME280;3707;43.618;25.342;2023-02-04T03:11:59;99547.69;;;4.53;100.00
7333;BME280;3707;43.618;25.342;2023-02-04T03:14:27;99534.06;;;4.57;100.00
7333;BME280;3707;43.618;25.342;2023-02-04T03:16:54;99534.84;;;4.53;100.00
7333;BME280;3707;43.618;25.342;2023-02-04T03:19:22;99532.59;;;4.63;100.00
7333;BME280;3707;43.618;25.342;2023-02-04T03:21:49;99513.66;;;4.60;100.00
7333;BME280;3707;43.618;25.342;2023-02-04T03:24:17;99527.84;;;4.77;100.00
7333;BME280;3707;43.618;25.342;2023-02-04T03:26:43;99526.19;;;4.79;100.00
7333;BME280;3707;43.618;25.342;2023-02-04T03:29:10;99522.72;;;4.77;100.00
7333;BME280;3707;43.618;25.342;2023-02-04T03:31:38;99520.97;;;4.76;100.00
7333;BME280;3707;43.618;25.342;2023-02-04T03:34:05;99512.59;;;4.83;100.00
7333;BME280;3707;43.618;25.342;2023-02-04T03:36:32;99500.69;;;4.85;100.00
7333;BME280;3707;43.618;25.342;2023-02-04T03:38:59;99496.38;;;4.84;100.00
7333;BME280;3707;43.618;25.342;2023-02-04T03:41:26;99487.84;;;4.85;100.00
7333;BME280;3707;43.618;25.342;2023-02-04T03:43:53;99492.34;;;4.92;100.00
7333;BME280;3707;43.618;25.342;2023-02-04T03:46:20;99476.22;;;4.97;100.00
7333;BME280;3707;43.618;25.342;2023-02-04T03:48:49;99468.38;;;4.93;100.00
7333;BME280;3707;43.618;25.342;2023-02-04T03:51:16;99483.91;;;5.29;100.00
7333;BME280;3707;43.618;25.342;2023-02-04T03:53:43;99484.66;;;5.58;100.00
7333;BME280;3707;43.618;25.342;2023-02-04T03:56:09;99476.31;;;5.66;100.00
7333;BME280;3707;43.618;25.342;2023-02-04T03:58:36;99494.19;;;5.96;100.00
7333;BME280;3707;43.618;25.342;2023-02-04T04:01:03;99481.25;;;5.93;100.00
7333;BME280;3707;43.618;25.342;2023-02-04T04:03:30;99490.84;;;5.98;100.00
7333;BME280;3707;43.618;25.342;2023-02-04T04:05:58;99499.56;;;6.05;100.00
7333;BME280;3707;43.618;25.342;2023-02-04T04:08:25;99495.56;;;6.18;100.00
7333;BME280;3707;43.618;25.342;2023-02-04T04:10:51;99495.78;;;6.27;100.00
7333;BME280;3707;43.618;25.342;2023-02-04T04:13:18;99503.41;;;6.22;100.00
7333;BME280;3707;43.618;25.342;2023-02-04T04:15:45;99489.53;;;6.16;100.00
7333;BME280;3707;43.618;25.342;2023-02-04T04:18:12;99489.41;;;6.10;100.00
7333;BME280;3707;43.618;25.342;2023-02-04T04:20:38;99483.38;;;6.11;100.00
7333;BME280;3707;43.618;25.342;2023-02-04T04:23:06;99475.25;;;5.92;100.00
7333;BME280;3707;43.618;25.342;2023-02-04T04:25:33;99469.13;;;5.87;100.00
7333;BME280;3707;43.618;25.342;2023-02-04T04:28:00;99477.03;;;5.95;100.00
7333;BME280;3707;43.618;25.342;2023-02-04T04:30:27;99467.78;;;6.03;100.00
7333;BME280;3707;43.618;25.342;2023-02-04T04:32:54;99473.72;;;5.99;100.00
7333;BME280;3707;43.618;25.342;2023-02-04T04:35:20;99477.22;;;6.03;100.00
7333;BME280;3707;43.618;25.342;2023-02-04T04:37:47;99452.94;;;5.91;100.00
7333;BME280;3707;43.618;25.342;2023-02-04T04:40:15;99478.22;;;6.09;100.00
7333;BME280;3707;43.618;25.342;2023-02-04T04:42:42;99474.72;;;6.06;100.00
7333;BME280;3707;43.618;25.342;2023-02-04T04:45:10;99443.72;;;6.01;100.00
7333;BME280;3707;43.618;25.342;2023-02-04T04:47:37;99461.09;;;6.11;100.00
7333;BME280;3707;43.618;25.342;2023-02-04T04:50:04;99477.47;;;6.13;100.00
7333;BME280;3707;43.618;25.342;2023-02-04T04:52:31;99471.41;;;6.11;100.00
7333;BME280;3707;43.618;25.342;2023-02-04T04:54:58;99484.56;;;6.25;100.00
7333;BME280;3707;43.618;25.342;2023-02-04T04:57:26;99483.69;;;6.24;100.00
7333;BME280;3707;43.618;25.342;2023-02-04T04:59:52;99470.59;;;6.14;100.00
7333;BME280;3707;43.618;25.342;2023-02-04T05:02:19;99464.59;;;6.13;100.00
7333;BME280;3707;43.618;25.342;2023-02-04T05:04:46;99495.59;;;6.19;100.00
7333;BME280;3707;43.618;25.342;2023-02-04T05:07:13;99494.09;;;6.27;100.00
7333;BME280;3707;43.618;25.342;2023-02-04T05:09:39;99473.28;;;6.18;100.00
7333;BME280;3707;43.618;25.342;2023-02-04T05:12:06;99490.53;;;6.22;100.00
7333;BME280;3707;43.618;25.342;2023-02-04T05:14:35;99485.44;;;6.25;100.00
7333;BME280;3707;43.618;25.342;2023-02-04T05:17:01;99497.25;;;6.17;100.00
7333;BME280;3707;43.618;25.342;2023-02-04T05:19:28;99476.47;;;6.08;100.00
7333;BME280;3707;43.618;25.342;2023-02-04T05:21:55;99495.47;;;6.13;100.00
7333;BME280;3707;43.618;25.342;2023-02-04T05:24:22;99493.03;;;6.19;100.00
7333;BME280;3707;43.618;25.342;2023-02-04T05:26:49;99502.47;;;6.19;100.00
7333;BME280;3707;43.618;25.342;2023-02-04T05:29:15;99507.56;;;6.17;100.00
7333;BME280;3707;43.618;25.342;2023-02-04T05:31:44;99506.72;;;6.18;100.00
7333;BME280;3707;43.618;25.342;2023-02-04T05:34:10;99502.34;;;6.14;100.00
7333;BME280;3707;43.618;25.342;2023-02-04T05:36:37;99507.41;;;6.10;100.00
7333;BME280;3707;43.618;25.342;2023-02-04T05:39:04;99490.84;;;6.00;100.00
7333;BME280;3707;43.618;25.342;2023-02-04T05:41:30;99494.25;;;5.97;100.00
7333;BME280;3707;43.618;25.342;2023-02-04T05:43:57;99514.06;;;6.02;100.00
7333;BME280;3707;43.618;25.342;2023-02-04T05:46:24;99507.28;;;6.05;100.00
7333;BME280;3707;43.618;25.342;2023-02-04T05:48:52;99511.69;;;6.11;100.00
7333;BME280;3707;43.618;25.342;2023-02-04T05:51:19;99510.56;;;5.98;100.00
7333;BME280;3707;43.618;25.342;2023-02-04T05:53:46;99488.75;;;5.85;100.00
7333;BME280;3707;43.618;25.342;2023-02-04T05:56:13;99508.88;;;6.00;100.00
7333;BME280;3707;43.618;25.342;2023-02-04T05:58:39;99509.00;;;6.05;100.00
7333;BME280;3707;43.618;25.342;2023-02-04T06:01:06;99507.16;;;5.99;100.00
7333;BME280;3707;43.618;25.342;2023-02-04T06:03:33;99512.31;;;5.99;100.00
7333;BME280;3707;43.618;25.342;2023-02-04T06:06:01;99506.34;;;6.02;100.00
7333;BME280;3707;43.618;25.342;2023-02-04T06:08:28;99510.50;;;5.96;100.00
7333;BME280;3707;43.618;25.342;2023-02-04T06:10:55;99515.84;;;6.04;100.00
7333;BME280;3707;43.618;25.342;2023-02-04T06:13:22;99509.78;;;6.02;100.00
7333;BME280;3707;43.618;25.342;2023-02-04T06:15:48;99494.31;;;6.01;100.00
7333;BME280;3707;43.618;25.342;2023-02-04T06:18:15;99489.91;;;6.32;100.00
7333;BME280;3707;43.618;25.342;2023-02-04T06:20:42;99502.50;;;6.20;100.00
7333;BME280;3707;43.618;25.342;2023-02-04T06:23:10;99506.03;;;6.25;100.00
7333;BME280;3707;43.618;25.342;2023-02-04T06:25:37;99506.72;;;6.17;100.00
7333;BME280;3707;43.618;25.342;2023-02-04T06:28:04;99505.97;;;6.22;100.00
7333;BME280;3707;43.618;25.342;2023-02-04T06:30:30;99509.09;;;6.09;100.00
7333;BME280;3707;43.618;25.342;2023-02-04T06:32:57;99505.78;;;6.13;100.00
7333;BME280;3707;43.618;25.342;2023-02-04T06:35:24;99485.09;;;6.10;100.00
7333;BME280;3707;43.618;25.342;2023-02-04T06:37:51;99514.50;;;6.21;100.00
7333;BME280;3707;43.618;25.342;2023-02-04T06:40:19;99513.13;;;6.35;100.00
7333;BME280;3707;43.618;25.342;2023-02-04T06:42:45;99513.19;;;6.37;100.00
7333;BME280;3707;43.618;25.342;2023-02-04T06:45:12;99512.94;;;6.26;100.00
7333;BME280;3707;43.618;25.342;2023-02-04T06:47:39;99517.34;;;6.32;100.00
7333;BME280;3707;43.618;25.342;2023-02-04T06:50:06;99519.03;;;6.31;100.00
7333;BME280;3707;43.618;25.342;2023-02-04T06:52:33;99520.66;;;6.28;100.00
7333;BME280;3707;43.618;25.342;2023-02-04T06:55:00;99512.19;;;6.32;100.00
7333;BME280;3707;43.618;25.342;2023-02-04T06:57:28;99515.81;;;6.40;100.00
7333;BME280;3707;43.618;25.342;2023-02-04T06:59:55;99487.78;;;6.15;100.00
7333;BME280;3707;43.618;25.342;2023-02-04T07:02:22;99514.75;;;6.32;100.00
7333;BME280;3707;43.618;25.342;2023-02-04T07:04:48;99524.19;;;6.31;100.00
7333;BME280;3707;43.618;25.342;2023-02-04T07:07:15;99524.38;;;6.39;100.00
7333;BME280;3707;43.618;25.342;2023-02-04T07:09:42;99523.34;;;6.32;100.00
7333;BME280;3707;43.618;25.342;2023-02-04T07:12:08;99521.38;;;6.21;100.00
7333;BME280;3707;43.618;25.342;2023-02-04T07:14:37;99522.84;;;6.10;100.00
7333;BME280;3707;43.618;25.342;2023-02-04T07:17:03;99526.94;;;6.02;100.00
7333;BME280;3707;43.618;25.342;2023-02-04T07:19:30;99510.06;;;5.80;100.00
7333;BME280;3707;43.618;25.342;2023-02-04T07:21:58;99513.41;;;5.76;100.00
7333;BME280;3707;43.618;25.342;2023-02-04T07:24:24;99512.44;;;5.72;100.00
7333;BME280;3707;43.618;25.342;2023-02-04T07:26:51;99502.09;;;5.69;100.00
7333;BME280;3707;43.618;25.342;2023-02-04T07:29:18;99501.22;;;5.69;100.00
7333;BME280;3707;43.618;25.342;2023-02-04T07:31:46;99498.69;;;5.70;100.00
7333;BME280;3707;43.618;25.342;2023-02-04T07:34:16;99501.03;;;5.61;100.00
7333;BME280;3707;43.618;25.342;2023-02-04T07:36:42;99492.34;;;5.58;100.00
7333;BME280;3707;43.618;25.342;2023-02-04T07:39:09;99485.13;;;5.43;100.00
7333;BME280;3707;43.618;25.342;2023-02-04T07:41:36;99502.44;;;5.48;100.00
7333;BME280;3707;43.618;25.342;2023-02-04T07:44:03;99495.47;;;5.44;100.00
7333;BME280;3707;43.618;25.342;2023-02-04T07:46:30;99493.69;;;5.42;100.00
7333;BME280;3707;43.618;25.342;2023-02-04T07:48:58;99494.63;;;5.45;100.00
7333;BME280;3707;43.618;25.342;2023-02-04T07:51:25;99477.03;;;5.28;100.00
7333;BME280;3707;43.618;25.342;2023-02-04T07:53:52;99482.47;;;5.38;100.00
7333;BME280;3707;43.618;25.342;2023-02-04T07:56:19;99487.09;;;5.53;100.00
7333;BME280;3707;43.618;25.342;2023-02-04T07:58:45;99484.31;;;5.44;100.00
7333;BME280;3707;43.618;25.342;2023-02-04T08:01:12;99490.31;;;5.44;100.00
7333;BME280;3707;43.618;25.342;2023-02-04T08:03:39;99483.50;;;5.46;100.00
7333;BME280;3707;43.618;25.342;2023-02-04T08:06:08;99471.25;;;5.36;100.00
7333;BME280;3707;43.618;25.342;2023-02-04T08:08:35;99477.41;;;5.41;100.00
7333;BME280;3707;43.618;25.342;2023-02-04T08:11:02;99488.50;;;5.40;100.00
7333;BME280;3707;43.618;25.342;2023-02-04T08:13:29;99473.53;;;5.26;100.00
7333;BME280;3707;43.618;25.342;2023-02-04T08:15:55;99467.94;;;5.40;100.00
7333;BME280;3707;43.618;25.342;2023-02-04T08:18:22;99480.44;;;5.60;100.00
7333;BME280;3707;43.618;25.342;2023-02-04T08:20:49;99481.28;;;5.60;100.00
7333;BME280;3707;43.618;25.342;2023-02-04T08:23:18;99487.69;;;5.76;100.00
7333;BME280;3707;43.618;25.342;2023-02-04T08:25:44;99484.91;;;5.68;100.00
7333;BME280;3707;43.618;25.342;2023-02-04T08:28:11;99489.56;;;5.83;100.00
7333;BME280;3707;43.618;25.342;2023-02-04T08:30:38;99497.97;;;5.76;100.00
7333;BME280;3707;43.618;25.342;2023-02-04T08:33:05;99494.31;;;6.01;100.00
7333;BME280;3707;43.618;25.342;2023-02-04T08:35:31;99497.97;;;6.10;100.00
7333;BME280;3707;43.618;25.342;2023-02-04T08:37:58;99510.91;;;6.13;100.00
7333;BME280;3707;43.618;25.342;2023-02-04T08:40:27;99517.25;;;6.27;100.00
7333;BME280;3707;43.618;25.342;2023-02-04T08:42:53;99517.56;;;6.42;100.00
7333;BME280;3707;43.618;25.342;2023-02-04T08:45:20;99523.84;;;6.54;100.00
7333;BME280;3707;43.618;25.342;2023-02-04T08:47:47;99534.34;;;6.63;100.00
7333;BME280;3707;43.618;25.342;2023-02-04T08:50:14;99541.31;;;6.67;100.00
7333;BME280;3707;43.618;25.342;2023-02-04T08:52:41;99539.44;;;6.60;100.00
7333;BME280;3707;43.618;25.342;2023-02-04T08:55:09;99519.66;;;6.59;100.00
7333;BME280;3707;43.618;25.342;2023-02-04T08:57:37;99543.44;;;6.86;100.00
7333;BME280;3707;43.618;25.342;2023-02-04T09:00:04;99544.13;;;6.77;100.00
7333;BME280;3707;43.618;25.342;2023-02-04T09:02:31;99546.00;;;6.84;100.00
7333;BME280;3707;43.618;25.342;2023-02-04T09:04:57;99541.00;;;6.92;100.00
7333;BME280;3707;43.618;25.342;2023-02-04T09:07:24;99541.66;;;7.25;100.00
7333;BME280;3707;43.618;25.342;2023-02-04T09:09:51;99543.38;;;6.83;100.00
7333;BME280;3707;43.618;25.342;2023-02-04T09:12:17;99553.66;;;6.83;100.00
7333;BME280;3707;43.618;25.342;2023-02-04T09:14:46;99528.88;;;6.88;100.00
7333;BME280;3707;43.618;25.342;2023-02-04T09:17:13;99543.47;;;6.87;100.00
7333;BME280;3707;43.618;25.342;2023-02-04T09:19:39;99545.28;;;6.93;100.00
7333;BME280;3707;43.618;25.342;2023-02-04T09:22:06;99547.31;;;7.06;100.00
7333;BME280;3707;43.618;25.342;2023-02-04T09:24:33;99516.13;;;6.94;100.00
7333;BME280;3707;43.618;25.342;2023-02-04T09:27:00;99547.41;;;7.12;100.00
7333;BME280;3707;43.618;25.342;2023-02-04T09:29:26;99534.44;;;7.08;100.00
7333;BME280;3707;43.618;25.342;2023-02-04T09:31:55;99545.72;;;7.14;100.00
7333;BME280;3707;43.618;25.342;2023-02-04T09:34:22;99549.91;;;7.08;100.00
7333;BME280;3707;43.618;25.342;2023-02-04T09:36:49;99549.06;;;7.10;100.00
7333;BME280;3707;43.618;25.342;2023-02-04T09:39:16;99541.88;;;6.94;100.00
7333;BME280;3707;43.618;25.342;2023-02-04T09:41:42;99517.56;;;6.81;100.00
7333;BME280;3707;43.618;25.342;2023-02-04T09:44:12;99541.22;;;7.03;100.00
7333;BME280;3707;43.618;25.342;2023-02-04T09:46:42;99546.59;;;7.13;100.00
7333;BME280;3707;43.618;25.342;2023-02-04T09:49:14;99543.69;;;6.98;100.00
7333;BME280;3707;43.618;25.342;2023-02-04T09:51:41;99551.31;;;6.93;100.00
7333;BME280;3707;43.618;25.342;2023-02-04T09:54:11;99545.44;;;7.01;100.00
7333;BME280;3707;43.618;25.342;2023-02-04T09:56:39;99545.56;;;7.07;100.00
7333;BME280;3707;43.618;25.342;2023-02-04T09:59:10;99516.78;;;7.27;100.00
7333;BME280;3707;43.618;25.342;2023-02-04T10:01:37;99538.34;;;7.31;100.00
7333;BME280;3707;43.618;25.342;2023-02-04T10:04:05;99529.53;;;7.21;100.00
7333;BME280;3707;43.618;25.342;2023-02-04T10:06:36;99538.13;;;7.20;100.00
7333;BME280;3707;43.618;25.342;2023-02-04T10:09:03;99539.38;;;7.40;100.00
7333;BME280;3707;43.618;25.342;2023-02-04T10:11:33;99526.78;;;7.12;100.00
7333;BME280;3707;43.618;25.342;2023-02-04T10:14:01;99543.41;;;7.28;100.00
7333;BME280;3707;43.618;25.342;2023-02-04T10:16:30;99512.47;;;7.26;100.00
7333;BME280;3707;43.618;25.342;2023-02-04T10:18:58;99543.84;;;7.51;100.00
7333;BME280;3707;43.618;25.342;2023-02-04T10:21:27;99542.84;;;7.42;100.00
7333;BME280;3707;43.618;25.342;2023-02-04T10:23:57;99539.16;;;7.78;100.00
7333;BME280;3707;43.618;25.342;2023-02-04T10:26:26;99544.66;;;7.96;100.00
7333;BME280;3707;43.618;25.342;2023-02-04T10:28:58;99512.31;;;7.65;100.00
7333;BME280;3707;43.618;25.342;2023-02-04T10:31:27;99540.78;;;7.71;100.00
7333;BME280;3707;43.618;25.342;2023-02-04T10:34:11;99546.16;;;7.83;100.00
7333;BME280;3707;43.618;25.342;2023-02-04T10:36:39;99543.53;;;8.31;100.00
7333;BME280;3707;43.618;25.342;2023-02-04T10:39:11;99546.38;;;8.50;100.00
7333;BME280;3707;43.618;25.342;2023-02-04T10:41:44;99560.16;;;8.49;100.00
7333;BME280;3707;43.618;25.342;2023-02-04T10:44:13;99568.41;;;8.26;100.00
7333;BME280;3707;43.618;25.342;2023-02-04T10:46:40;99558.16;;;8.29;100.00
7333;BME280;3707;43.618;25.342;2023-02-04T10:49:17;99551.75;;;8.62;100.00
7333;BME280;3707;43.618;25.342;2023-02-04T10:51:44;99561.25;;;8.64;100.00
7333;BME280;3707;43.618;25.342;2023-02-04T10:54:13;99558.69;;;8.66;100.00
7333;BME280;3707;43.618;25.342;2023-02-04T10:56:55;99564.69;;;8.63;100.00
7333;BME280;3707;43.618;25.342;2023-02-04T10:59:23;99572.22;;;8.50;100.00
7333;BME280;3707;43.618;25.342;2023-02-04T11:01:54;99544.09;;;8.69;100.00
7333;BME280;3707;43.618;25.342;2023-02-04T11:04:21;99570.59;;;8.56;100.00
7333;BME280;3707;43.618;25.342;2023-02-04T11:06:49;99545.88;;;8.73;100.00
7333;BME280;3707;43.618;25.342;2023-02-04T11:09:17;99527.03;;;8.82;100.00
7333;BME280;3707;43.618;25.342;2023-02-04T11:11:45;99554.25;;;8.57;100.00
7333;BME280;3707;43.618;25.342;2023-02-04T11:14:25;99536.22;;;9.26;100.00
7333;BME280;3707;43.618;25.342;2023-02-04T11:16:53;99548.59;;;8.84;100.00
7333;BME280;3707;43.618;25.342;2023-02-04T11:19:37;99554.41;;;8.68;100.00
7333;BME280;3707;43.618;25.342;2023-02-04T11:22:07;99563.28;;;8.86;100.00
7333;BME280;3707;43.618;25.342;2023-02-04T11:24:35;99559.59;;;9.38;100.00
7333;BME280;3707;43.618;25.342;2023-02-04T11:27:16;99564.47;;;9.11;100.00
7333;BME280;3707;43.618;25.342;2023-02-04T11:29:43;99563.22;;;8.82;100.00
7333;BME280;3707;43.618;25.342;2023-02-04T11:32:27;99560.47;;;8.71;100.00
7333;BME280;3707;43.618;25.342;2023-02-04T11:35:05;99562.75;;;8.49;100.00
7333;BME280;3707;43.618;25.342;2023-02-04T11:37:35;99553.69;;;8.78;100.00
7333;BME280;3707;43.618;25.342;2023-02-04T11:40:20;99548.59;;;8.84;100.00
7333;BME280;3707;43.618;25.342;2023-02-04T11:42:48;99557.59;;;9.13;100.00
7333;BME280;3707;43.618;25.342;2023-02-04T11:45:18;99546.53;;;9.23;100.00
7333;BME280;3707;43.618;25.342;2023-02-04T11:47:46;99472.97;;;9.00;100.00
7333;BME280;3707;43.618;25.342;2023-02-04T11:50:18;99533.63;;;9.28;100.00
7333;BME280;3707;43.618;25.342;2023-02-04T11:52:46;99471.13;;;8.90;100.00
7333;BME280;3707;43.618;25.342;2023-02-04T11:55:14;99526.66;;;9.22;100.00
7333;BME280;3707;43.618;25.342;2023-02-04T11:57:44;99535.66;;;9.55;100.00
7333;BME280;3707;43.618;25.342;2023-02-04T12:00:23;99521.91;;;9.62;100.00
7333;BME280;3707;43.618;25.342;2023-02-04T12:02:55;99518.78;;;9.98;100.00
7333;BME280;3707;43.618;25.342;2023-02-04T12:05:35;99525.88;;;9.29;100.00
7333;BME280;3707;43.618;25.342;2023-02-04T12:08:09;99536.44;;;9.48;100.00
7333;BME280;3707;43.618;25.342;2023-02-04T12:10:38;99542.56;;;9.56;100.00
7333;BME280;3707;43.618;25.342;2023-02-04T12:13:15;99547.31;;;10.02;100.00
7333;BME280;3707;43.618;25.342;2023-02-04T12:15:53;99543.69;;;9.83;100.00
7333;BME280;3707;43.618;25.342;2023-02-04T12:18:20;99541.16;;;9.88;100.00
7333;BME280;3707;43.618;25.342;2023-02-04T12:20:47;99548.16;;;9.98;100.00
7333;BME280;3707;43.618;25.342;2023-02-04T12:23:14;99526.59;;;10.04;100.00
7333;BME280;3707;43.618;25.342;2023-02-04T12:25:42;99547.34;;;10.07;100.00
7333;BME280;3707;43.618;25.342;2023-02-04T12:28:09;99537.69;;;9.89;100.00
7333;BME280;3707;43.618;25.342;2023-02-04T12:30:36;99538.22;;;9.52;100.00
7333;BME280;3707;43.618;25.342;2023-02-04T12:33:02;99549.09;;;9.25;100.00
7333;BME280;3707;43.618;25.342;2023-02-04T12:35:29;99559.19;;;9.02;100.00
7333;BME280;3707;43.618;25.342;2023-02-04T12:37:56;99532.06;;;8.71;100.00
7333;BME280;3707;43.618;25.342;2023-02-04T12:40:23;99551.94;;;8.74;100.00
7333;BME280;3707;43.618;25.342;2023-02-04T12:42:51;99549.91;;;8.55;100.00
7333;BME280;3707;43.618;25.342;2023-02-04T12:45:18;99550.78;;;8.55;100.00
7333;BME280;3707;43.618;25.342;2023-02-04T12:47:45;99520.41;;;8.37;100.00
7333;BME280;3707;43.618;25.342;2023-02-04T12:50:14;99554.56;;;8.77;100.00
7333;BME280;3707;43.618;25.342;2023-02-04T12:52:47;99552.06;;;8.86;100.00
7333;BME280;3707;43.618;25.342;2023-02-04T12:55:14;99548.84;;;9.02;100.00
7333;BME280;3707;43.618;25.342;2023-02-04T12:57:41;99549.84;;;9.15;100.00
7333;BME280;3707;43.618;25.342;2023-02-04T13:00:11;99534.91;;;9.66;100.00
7333;BME280;3707;43.618;25.342;2023-02-04T13:02:37;99552.34;;;9.88;100.00
7333;BME280;3707;43.618;25.342;2023-02-04T13:05:05;99558.50;;;10.00;100.00
7333;BME280;3707;43.618;25.342;2023-02-04T13:07:32;99544.44;;;9.72;100.00
7333;BME280;3707;43.618;25.342;2023-02-04T13:09:59;99558.44;;;9.92;100.00
7333;BME280;3707;43.618;25.342;2023-02-04T13:12:26;99567.97;;;9.94;100.00
7333;BME280;3707;43.618;25.342;2023-02-04T13:14:53;99562.41;;;9.60;100.00